Verona, Pennsylvania
Current Conditions -  °F | °C
As of 12:53 PM on Monday 24 Nov 2014 (Local Time) from KAGC Reporting Station
Overcast Overcast  
Wind Chill: 67°   Ceiling: 6500
Heat Index: 67°   Visibility: 10mi
Dew Point: 38°   Wind: 35mph
Humidity: 34%   Direction: 210°SSW
Pressure: 29.42"   Gusts: 47mph
Location:  40.51°N, 79.84°W
Report Text: KAGC 241753Z 21030G41KT 10SM BKN065 OVC085 19/03 A2942 RMK AO2 PK WND 21042/1654 SLP963 T01940033 10200 20150 55007
Loading
Personal Weather Stations






























Interactive Weather Map New forecast layout! Learn more

10-Day Weather Forecast

Advertisements
Track Severe Weather on mobile